createdAt,value
2023-01-03T00:01:31.876Z,10.41
2023-01-03T00:04:03.469Z,10.51
2023-01-03T00:06:41.220Z,10.50
2023-01-03T00:09:18.298Z,10.32
2023-01-03T00:12:09.336Z,10.47
2023-01-03T00:14:45.079Z,10.46
2023-01-03T00:17:15.494Z,10.42
2023-01-03T00:19:45.559Z,10.45
2023-01-03T00:22:18.126Z,10.50
2023-01-03T00:24:46.586Z,10.47
2023-01-03T00:27:16.781Z,10.50
2023-01-03T00:29:48.913Z,10.46
2023-01-03T00:32:19.229Z,10.34
2023-01-03T00:34:47.962Z,10.51
2023-01-03T00:37:18.919Z,10.28
2023-01-03T00:39:50.016Z,10.28
2023-01-03T00:42:21.231Z,10.44
2023-01-03T00:44:49.566Z,10.27
2023-01-03T00:47:17.687Z,10.51
2023-01-03T00:49:48.799Z,10.51
2023-01-03T00:52:17.102Z,10.47
2023-01-03T00:54:45.267Z,10.45
2023-01-03T00:57:13.551Z,10.59
2023-01-03T00:59:43.069Z,10.52
2023-01-03T01:02:11.417Z,10.54
2023-01-03T01:04:40.392Z,10.71
2023-01-03T01:07:08.404Z,10.86
2023-01-03T01:09:41.090Z,10.86
2023-01-03T01:12:11.118Z,10.95
2023-01-03T01:14:39.103Z,10.93
2023-01-03T01:17:09.360Z,10.98
2023-01-03T01:19:38.478Z,10.99
2023-01-03T01:22:08.503Z,10.99
2023-01-03T01:24:36.748Z,11.10
2023-01-03T01:27:06.384Z,11.04
2023-01-03T01:29:34.617Z,11.11
2023-01-03T01:32:05.977Z,11.16
2023-01-03T01:34:36.224Z,11.11
2023-01-03T01:37:07.136Z,11.20
2023-01-03T01:39:37.139Z,11.18
2023-01-03T01:42:30.559Z,11.22
2023-01-03T01:44:59.495Z,11.21
2023-01-03T01:47:35.700Z,11.20
2023-01-03T01:50:19.561Z,11.26
2023-01-03T01:52:55.154Z,11.08
2023-01-03T01:55:28.012Z,11.16
2023-01-03T01:57:56.030Z,11.21
2023-01-03T02:00:23.988Z,11.17
2023-01-03T02:02:53.423Z,11.21
2023-01-03T02:05:23.220Z,11.14
2023-01-03T02:07:51.850Z,11.21
2023-01-03T02:10:20.249Z,11.28
2023-01-03T02:13:10.277Z,11.34
2023-01-03T02:15:56.840Z,11.34
2023-01-03T02:18:33.540Z,11.45
2023-01-03T02:21:28.123Z,11.48
2023-01-03T02:24:15.168Z,11.48
2023-01-03T02:26:54.181Z,11.46
2023-01-03T02:29:51.780Z,11.55
2023-01-03T02:32:27.278Z,11.61
2023-01-03T02:34:58.944Z,11.60
2023-01-03T02:37:32.622Z,11.61
2023-01-03T02:40:02.869Z,11.72
2023-01-03T02:42:50.751Z,11.69
2023-01-03T02:45:20.027Z,11.76
2023-01-03T02:47:53.639Z,11.76
2023-01-03T02:50:22.354Z,11.83
2023-01-03T02:52:52.850Z,11.85
2023-01-03T02:55:21.630Z,11.88
2023-01-03T02:57:51.386Z,11.89
2023-01-03T03:00:23.894Z,11.93
2023-01-03T03:02:56.715Z,11.98
2023-01-03T03:05:27.379Z,12.07
2023-01-03T03:08:11.416Z,11.94
2023-01-03T03:11:07.265Z,11.91
2023-01-03T03:13:48.598Z,12.07
2023-01-03T03:16:44.842Z,12.21
2023-01-03T03:19:48.752Z,12.06
2023-01-03T03:22:39.062Z,12.24
2023-01-03T03:25:14.309Z,12.21
2023-01-03T03:28:09.881Z,12.34
2023-01-03T03:30:46.370Z,12.42
2023-01-03T03:33:17.552Z,12.33
2023-01-03T03:35:58.607Z,12.39
2023-01-03T03:38:33.401Z,12.40
2023-01-03T03:41:27.613Z,12.38
2023-01-03T03:44:20.041Z,12.45
2023-01-03T03:46:55.080Z,12.24
2023-01-03T03:49:43.229Z,12.37
2023-01-03T03:52:18.301Z,12.35
2023-01-03T03:54:57.609Z,12.49
2023-01-03T03:57:33.955Z,12.36
2023-01-03T04:00:10.579Z,12.37
2023-01-03T04:02:49.155Z,12.63
2023-01-03T04:05:24.540Z,12.69
2023-01-03T04:07:56.387Z,12.71
2023-01-03T04:10:37.673Z,12.96
2023-01-03T04:13:06.413Z,13.06
2023-01-03T04:15:34.599Z,13.11
2023-01-03T04:18:05.371Z,13.18
2023-01-03T04:20:35.424Z,13.20
2023-01-03T04:23:06.762Z,13.26
2023-01-03T04:25:35.054Z,13.37
2023-01-03T04:28:03.073Z,13.38
2023-01-03T04:30:31.345Z,13.39
2023-01-03T04:33:04.967Z,13.44
2023-01-03T04:35:36.600Z,13.43
2023-01-03T04:38:05.987Z,13.52
2023-01-03T04:40:35.118Z,13.52
2023-01-03T04:43:20.427Z,13.53
2023-01-03T04:45:49.734Z,13.54
2023-01-03T04:48:18.127Z,13.64
2023-01-03T04:50:52.764Z,13.64
2023-01-03T04:53:24.614Z,13.68
2023-01-03T04:55:53.556Z,13.69
2023-01-03T04:58:21.553Z,13.69
2023-01-03T05:00:49.879Z,13.79
2023-01-03T05:03:21.238Z,13.85
2023-01-03T05:05:54.024Z,13.75
2023-01-03T05:08:23.539Z,13.78
2023-01-03T05:10:52.941Z,13.83
2023-01-03T05:13:21.396Z,13.87
2023-01-03T05:15:52.201Z,13.82
2023-01-03T05:18:21.953Z,13.86
2023-01-03T05:21:07.286Z,13.93
2023-01-03T05:24:08.447Z,13.95
2023-01-03T05:26:37.965Z,13.94
2023-01-03T05:29:06.395Z,13.91
2023-01-03T05:31:34.385Z,14.01
2023-01-03T05:34:02.536Z,13.99
2023-01-03T05:36:30.584Z,14.03
2023-01-03T05:39:00.295Z,14.07
2023-01-03T05:41:45.627Z,14.16
2023-01-03T05:44:13.959Z,14.14
2023-01-03T05:46:41.985Z,14.20
2023-01-03T05:49:10.497Z,14.23
2023-01-03T05:51:38.705Z,14.27
2023-01-03T05:54:11.543Z,14.28
2023-01-03T05:56:40.281Z,14.35
2023-01-03T05:59:08.805Z,14.36
2023-01-03T06:01:37.204Z,14.40
2023-01-03T06:04:06.353Z,14.44
2023-01-03T06:06:34.858Z,14.47
2023-01-03T06:09:05.947Z,14.45
2023-01-03T06:11:36.223Z,14.43
2023-01-03T06:14:07.130Z,14.50
2023-01-03T06:17:04.056Z,14.45
2023-01-03T06:19:32.030Z,14.48
2023-01-03T06:22:00.368Z,14.45
2023-01-03T06:24:29.574Z,14.45
2023-01-03T06:27:01.410Z,14.47
2023-01-03T06:29:29.552Z,14.49
2023-01-03T06:31:57.568Z,14.50
2023-01-03T06:34:25.843Z,14.54
2023-01-03T06:36:54.096Z,14.49
2023-01-03T06:39:22.687Z,14.50
2023-01-03T06:41:51.328Z,14.49
2023-01-03T06:44:26.509Z,14.52
2023-01-03T06:47:11.693Z,14.59
2023-01-03T06:50:01.675Z,14.48
2023-01-03T06:52:47.595Z,14.62
2023-01-03T06:55:15.871Z,14.67
2023-01-03T06:57:45.654Z,14.72
2023-01-03T07:00:16.509Z,14.73
2023-01-03T07:02:44.869Z,14.73
2023-01-03T07:05:15.119Z,14.75
2023-01-03T07:07:43.425Z,14.78
2023-01-03T07:10:11.784Z,14.76
2023-01-03T07:12:57.065Z,14.70
2023-01-03T07:15:26.869Z,14.80
2023-01-03T07:17:55.883Z,14.78
2023-01-03T07:20:24.092Z,14.80
2023-01-03T07:22:52.575Z,14.72
2023-01-03T07:25:21.256Z,14.81
2023-01-03T07:28:03.590Z,14.80
2023-01-03T07:30:38.076Z,14.77
2023-01-03T07:33:06.175Z,14.72
2023-01-03T07:35:34.629Z,14.71
2023-01-03T07:38:02.738Z,14.79
2023-01-03T07:40:30.700Z,14.82
2023-01-03T07:43:16.278Z,14.79
2023-01-03T07:45:45.994Z,14.77
2023-01-03T07:48:14.410Z,14.80
2023-01-03T07:50:42.704Z,14.81
2023-01-03T07:53:16.401Z,14.81
2023-01-03T07:55:47.113Z,14.77
2023-01-03T07:58:15.119Z,14.79
2023-01-03T08:00:45.058Z,14.85
2023-01-03T08:03:15.780Z,14.87
2023-01-03T08:05:44.016Z,14.83
2023-01-03T08:08:12.096Z,14.90
2023-01-03T08:10:57.386Z,14.90
2023-01-03T08:13:25.348Z,14.87
2023-01-03T08:15:55.286Z,14.88
2023-01-03T08:18:27.856Z,14.88
2023-01-03T08:20:57.309Z,14.94
2023-01-03T08:23:25.905Z,14.90
2023-01-03T08:25:55.865Z,14.87
2023-01-03T08:28:23.945Z,14.93
2023-01-03T08:30:51.952Z,14.97
2023-01-03T08:33:20.286Z,14.97
2023-01-03T08:35:50.460Z,14.95
2023-01-03T08:38:19.949Z,14.98
2023-01-03T08:40:50.391Z,15.01
2023-01-03T08:43:20.606Z,14.99
2023-01-03T08:45:48.724Z,14.96
2023-01-03T08:48:16.846Z,14.96
2023-01-03T08:50:44.921Z,14.97
2023-01-03T08:53:14.258Z,15.02
2023-01-03T08:55:42.461Z,14.97
2023-01-03T08:58:10.620Z,15.03
2023-01-03T09:00:41.759Z,15.03
2023-01-03T09:03:09.893Z,15.04
2023-01-03T09:05:40.806Z,14.85
2023-01-03T09:08:08.990Z,15.01
2023-01-03T09:10:47.103Z,15.03
2023-01-03T09:13:16.091Z,15.06
2023-01-03T09:15:52.839Z,15.00
2023-01-03T09:18:26.683Z,14.92
2023-01-03T09:20:57.513Z,15.09
2023-01-03T09:23:25.768Z,14.95
2023-01-03T09:25:55.464Z,15.08
2023-01-03T09:28:23.887Z,15.10
2023-01-03T09:30:52.054Z,15.10
2023-01-03T09:33:20.227Z,15.10
2023-01-03T09:35:48.450Z,15.03
2023-01-03T09:38:16.661Z,14.97
2023-01-03T09:40:46.019Z,15.06
2023-01-03T09:43:23.048Z,15.10
2023-01-03T09:45:55.187Z,15.00
2023-01-03T09:48:27.234Z,15.11
2023-01-03T09:51:18.521Z,15.14
2023-01-03T09:54:04.264Z,15.21
2023-01-03T09:56:50.771Z,15.12
2023-01-03T09:59:37.580Z,15.17
2023-01-03T10:02:35.942Z,15.12
2023-01-03T10:05:13.368Z,15.18
2023-01-03T10:07:53.641Z,15.17
2023-01-03T10:10:27.752Z,15.26
2023-01-03T10:13:06.361Z,15.31
2023-01-03T10:15:40.330Z,15.27
2023-01-03T10:18:14.619Z,15.35
2023-01-03T10:20:47.757Z,15.20
2023-01-03T10:23:16.332Z,15.19
2023-01-03T10:25:52.972Z,15.28
2023-01-03T10:28:31.954Z,15.37
2023-01-03T10:31:16.034Z,15.42
2023-01-03T10:33:54.123Z,15.30
2023-01-03T10:36:24.810Z,15.51
2023-01-03T10:39:28.360Z,15.33
2023-01-03T10:42:10.683Z,15.43
2023-01-03T10:44:45.029Z,15.52
2023-01-03T10:47:25.100Z,15.61
2023-01-03T10:50:10.443Z,15.43
2023-01-03T10:52:42.499Z,15.55
2023-01-03T10:55:28.680Z,15.44
2023-01-03T10:58:36.060Z,15.58
2023-01-03T11:01:21.274Z,15.57
2023-01-03T11:04:20.678Z,15.60
2023-01-03T11:07:33.170Z,15.58
2023-01-03T11:10:16.558Z,15.46
2023-01-03T11:12:53.325Z,15.69
2023-01-03T11:15:32.501Z,15.58
2023-01-03T11:18:05.652Z,15.65
2023-01-03T11:20:41.529Z,15.78
2023-01-03T11:23:17.054Z,15.75
2023-01-03T11:26:05.952Z,15.80
2023-01-03T11:29:05.587Z,15.68
2023-01-03T11:31:46.067Z,15.64
2023-01-03T11:34:55.029Z,15.77
2023-01-03T11:37:27.944Z,15.76
2023-01-03T11:40:03.313Z,15.74
2023-01-03T11:42:44.580Z,15.73
2023-01-03T11:45:48.864Z,15.77
2023-01-03T11:48:38.378Z,15.73
2023-01-03T11:51:19.694Z,15.78
2023-01-03T11:53:57.204Z,15.79
2023-01-03T11:56:29.202Z,15.78
2023-01-03T11:59:48.103Z,15.77
2023-01-03T12:02:49.712Z,15.79
2023-01-03T12:05:46.986Z,15.81
2023-01-03T12:08:53.209Z,15.83
2023-01-03T12:11:32.965Z,15.82
2023-01-03T12:14:07.048Z,15.63
2023-01-03T12:16:46.411Z,15.65
2023-01-03T12:19:23.581Z,15.82
2023-01-03T12:21:55.426Z,15.84
2023-01-03T12:24:30.105Z,15.71
2023-01-03T12:27:14.003Z,15.86
2023-01-03T12:29:52.551Z,15.72
2023-01-03T12:32:23.650Z,15.55
2023-01-03T12:34:53.399Z,15.75
2023-01-03T12:37:22.974Z,15.67
2023-01-03T12:39:55.471Z,15.66
2023-01-03T12:42:30.865Z,15.65
2023-01-03T12:45:03.301Z,15.48
2023-01-03T12:47:35.582Z,15.29
2023-01-03T12:50:06.574Z,15.59
2023-01-03T12:52:35.467Z,15.57
2023-01-03T12:55:08.355Z,15.42
2023-01-03T12:58:02.580Z,15.52
2023-01-03T13:00:57.190Z,15.47
2023-01-03T13:03:26.916Z,15.41
2023-01-03T13:05:56.444Z,15.19
2023-01-03T13:08:31.142Z,15.46
2023-01-03T13:11:04.071Z,15.52
2023-01-03T13:13:33.763Z,15.40
2023-01-03T13:16:10.849Z,15.60
2023-01-03T13:18:39.014Z,15.67
2023-01-03T13:21:45.195Z,15.73
2023-01-03T13:24:14.814Z,15.71
2023-01-03T13:26:46.868Z,15.65
2023-01-03T13:29:45.819Z,15.69
2023-01-03T13:32:18.313Z,15.72
2023-01-03T13:34:46.621Z,15.73
2023-01-03T13:37:18.187Z,15.42
2023-01-03T13:39:59.359Z,15.60
2023-01-03T13:42:29.594Z,15.73
2023-01-03T13:45:21.995Z,15.64
2023-01-03T13:47:50.870Z,15.79
2023-01-03T13:50:22.796Z,15.74
2023-01-03T13:52:59.070Z,15.67
2023-01-03T13:55:36.748Z,15.52
2023-01-03T13:58:05.563Z,15.63
2023-01-03T14:00:36.672Z,15.71
2023-01-03T14:03:25.174Z,15.65
2023-01-03T14:06:11.644Z,15.71
2023-01-03T14:09:12.778Z,15.72
2023-01-03T14:12:00.370Z,15.73
2023-01-03T14:14:29.951Z,15.65
2023-01-03T14:16:59.635Z,15.64
2023-01-03T14:19:31.060Z,15.71
2023-01-03T14:22:26.724Z,15.61
2023-01-03T14:24:52.171Z,15.56
2023-01-03T14:27:23.809Z,15.58
2023-01-03T14:30:03.982Z,15.75
2023-01-03T14:32:35.233Z,15.79
2023-01-03T14:35:03.506Z,15.77
2023-01-03T14:37:37.606Z,15.65
2023-01-03T14:40:08.189Z,15.79
2023-01-03T14:42:36.502Z,15.72
2023-01-03T14:45:05.798Z,15.76
2023-01-03T14:47:36.852Z,15.85
2023-01-03T14:50:05.717Z,15.78
2023-01-03T14:52:34.613Z,15.87
2023-01-03T14:55:13.126Z,15.83
2023-01-03T14:57:45.779Z,15.66
2023-01-03T15:00:22.291Z,15.70
2023-01-03T15:02:55.515Z,15.90
2023-01-03T15:05:29.497Z,15.79
2023-01-03T15:08:10.308Z,15.94
2023-01-03T15:10:43.646Z,15.89
2023-01-03T15:13:22.163Z,15.90
2023-01-03T15:15:55.123Z,15.88
2023-01-03T15:18:25.882Z,15.87
2023-01-03T15:20:55.946Z,15.99
2023-01-03T15:23:35.975Z,15.79
2023-01-03T15:26:05.319Z,15.97
2023-01-03T15:28:36.976Z,15.97
2023-01-03T15:31:16.628Z,16.02
2023-01-03T15:33:46.405Z,15.87
2023-01-03T15:36:19.182Z,16.12
2023-01-03T15:38:47.936Z,16.12
2023-01-03T15:41:17.435Z,16.31
2023-01-03T15:43:44.809Z,16.22
2023-01-03T15:46:15.245Z,16.24
2023-01-03T15:48:43.740Z,16.43
2023-01-03T15:51:13.410Z,16.39
2023-01-03T15:53:44.584Z,16.45
2023-01-03T15:56:18.104Z,16.47
2023-01-03T15:58:46.785Z,16.31
2023-01-03T16:01:17.659Z,16.50
2023-01-03T16:03:46.124Z,16.32
2023-01-03T16:06:16.451Z,16.28
2023-01-03T16:08:44.803Z,16.32
2023-01-03T16:11:19.591Z,16.49
2023-01-03T16:13:50.840Z,16.42
2023-01-03T16:16:22.396Z,16.35
2023-01-03T16:18:51.782Z,16.13
2023-01-03T16:21:30.668Z,16.29
2023-01-03T16:24:03.324Z,16.41
2023-01-03T16:26:32.198Z,16.36
2023-01-03T16:29:02.014Z,16.26
2023-01-03T16:31:33.161Z,16.32
2023-01-03T16:34:04.129Z,16.29
2023-01-03T16:36:39.758Z,16.45
2023-01-03T16:39:12.425Z,16.28
2023-01-03T16:41:44.279Z,16.29
2023-01-03T16:44:34.818Z,16.41
2023-01-03T16:47:17.916Z,16.32
2023-01-03T16:50:23.100Z,16.47
2023-01-03T16:53:42.846Z,16.38
2023-01-03T16:56:57.055Z,16.44
2023-01-03T17:17:53.945Z,16.37
2023-01-03T17:20:26.720Z,16.42
2023-01-03T17:22:59.193Z,16.38
2023-01-03T17:25:31.469Z,16.25
2023-01-03T17:28:00.180Z,16.42
2023-01-03T17:30:51.436Z,16.40
2023-01-03T17:33:21.601Z,16.25
2023-01-03T17:35:50.886Z,16.24
2023-01-03T17:38:27.292Z,16.44
2023-01-03T17:40:58.034Z,16.22
2023-01-03T17:43:37.243Z,16.42
2023-01-03T17:49:13.941Z,16.37
2023-01-03T17:51:42.881Z,16.20
2023-01-03T17:54:11.525Z,16.22
2023-01-03T17:56:41.199Z,16.20
2023-01-03T18:00:31.366Z,16.40
2023-01-03T18:03:02.157Z,16.16
2023-01-03T18:05:32.802Z,16.28
2023-01-03T18:08:04.813Z,16.35
2023-01-03T18:10:45.810Z,16.18
2023-01-03T18:13:25.026Z,16.22
2023-01-03T18:15:57.196Z,16.16
2023-01-03T18:18:28.131Z,16.25
2023-01-03T18:21:01.981Z,16.27
2023-01-03T18:23:39.853Z,16.35
2023-01-03T18:26:12.051Z,16.31
2023-01-03T18:28:43.800Z,16.30
2023-01-03T18:31:16.979Z,16.36
2023-01-03T18:33:46.097Z,16.34
2023-01-03T18:36:44.585Z,16.29
2023-01-03T18:39:17.391Z,16.37
2023-01-03T18:41:46.711Z,16.32
2023-01-03T18:44:20.664Z,16.21
2023-01-03T18:46:50.984Z,16.14
2023-01-03T18:49:28.205Z,16.37
2023-01-03T18:52:16.600Z,16.25
2023-01-03T18:54:45.967Z,16.37
2023-01-03T18:57:19.594Z,16.36
2023-01-03T18:59:49.496Z,16.54
2023-01-03T19:02:19.174Z,16.49
2023-01-03T19:04:51.606Z,16.56
2023-01-03T19:07:33.887Z,16.50
2023-01-03T19:10:12.613Z,16.53
2023-01-03T19:12:47.832Z,16.46
2023-01-03T19:15:20.532Z,16.51
2023-01-03T19:17:52.603Z,16.53
2023-01-03T19:20:27.442Z,16.53
2023-01-03T19:22:57.741Z,16.44
2023-01-03T19:25:30.098Z,16.70
2023-01-03T19:28:00.982Z,16.57
2023-01-03T19:30:37.449Z,16.66
2023-01-03T19:33:07.148Z,16.47
2023-01-03T19:35:35.808Z,16.59
2023-01-03T19:38:09.735Z,16.59
2023-01-03T19:40:40.069Z,16.59
2023-01-03T19:43:08.939Z,16.59
2023-01-03T19:45:38.852Z,16.58
2023-01-03T19:48:23.419Z,16.66
2023-01-03T19:50:54.085Z,16.60
2023-01-03T19:53:23.865Z,16.67
2023-01-03T19:55:53.185Z,16.57
2023-01-03T19:58:24.711Z,16.58
2023-01-03T20:00:53.963Z,16.37
2023-01-03T20:03:27.994Z,16.47
2023-01-03T20:06:03.238Z,16.44
2023-01-03T20:08:34.974Z,16.46
2023-01-03T20:11:04.520Z,16.42
2023-01-03T20:13:32.929Z,16.48
2023-01-03T20:16:03.248Z,16.49
2023-01-03T20:18:34.567Z,16.35
2023-01-03T20:21:06.769Z,16.57
2023-01-03T20:23:38.626Z,16.62
2023-01-03T20:26:20.867Z,16.48
2023-01-03T20:28:49.173Z,16.68
2023-01-03T20:31:20.896Z,16.53
2023-01-03T20:33:50.877Z,16.70
2023-01-03T20:36:23.421Z,16.71
2023-01-03T20:38:55.822Z,16.68
2023-01-03T20:41:36.093Z,16.64
2023-01-03T20:44:05.015Z,16.67
2023-01-03T20:46:33.913Z,16.63
2023-01-03T20:49:02.686Z,16.53
2023-01-03T20:51:34.771Z,16.74
2023-01-03T20:54:04.598Z,16.76
2023-01-03T20:56:33.475Z,16.77
2023-01-03T20:59:01.885Z,16.72
2023-01-03T21:01:31.684Z,16.74
2023-01-03T21:04:10.314Z,16.84
2023-01-03T21:06:39.645Z,16.70
2023-01-03T21:09:09.465Z,16.70
2023-01-03T21:11:38.857Z,16.83
2023-01-03T21:14:17.393Z,16.76
2023-01-03T21:16:52.536Z,16.76
2023-01-03T21:19:24.824Z,16.64
2023-01-03T21:21:58.429Z,16.92
2023-01-03T21:24:38.557Z,16.84
2023-01-03T21:27:07.285Z,16.82
2023-01-03T21:29:37.698Z,16.71
2023-01-03T21:32:07.850Z,16.85
2023-01-03T21:34:38.865Z,16.90
2023-01-03T21:37:14.300Z,16.87
2023-01-03T21:39:50.266Z,16.89
2023-01-03T21:42:45.504Z,16.81
2023-01-03T21:45:17.846Z,16.70
2023-01-03T21:47:46.399Z,16.98
2023-01-03T21:50:18.050Z,16.86
2023-01-03T21:52:46.997Z,16.90
2023-01-03T21:55:16.690Z,16.95
2023-01-03T21:57:49.788Z,16.98
2023-01-03T22:00:21.084Z,16.95
2023-01-03T22:03:10.584Z,16.90
2023-01-03T22:05:44.474Z,16.87
2023-01-03T22:08:14.338Z,17.03
2023-01-03T22:10:49.779Z,16.98
2023-01-03T22:13:20.533Z,16.96
2023-01-03T22:15:57.473Z,16.89
2023-01-03T22:18:27.026Z,16.91
2023-01-03T22:21:01.809Z,16.93
2023-01-03T22:23:33.205Z,16.84
2023-01-03T22:26:21.852Z,17.01
2023-01-03T22:29:13.101Z,17.01
2023-01-03T22:31:44.862Z,16.85
2023-01-03T22:34:16.639Z,16.84
2023-01-03T22:36:51.568Z,16.88
2023-01-03T22:39:20.265Z,16.72
2023-01-03T22:41:52.935Z,16.94
2023-01-03T22:44:21.843Z,16.83
2023-01-03T22:46:50.164Z,16.53
2023-01-03T22:49:18.373Z,16.66
2023-01-03T22:51:47.486Z,16.50
2023-01-03T22:54:20.329Z,16.47
2023-01-03T22:56:48.655Z,16.43
2023-01-03T22:59:22.752Z,16.58
2023-01-03T23:01:53.120Z,16.64
2023-01-03T23:04:26.839Z,16.44
2023-01-03T23:06:55.625Z,16.51
2023-01-03T23:09:24.130Z,16.51
2023-01-03T23:12:11.233Z,16.54
2023-01-03T23:14:41.387Z,16.55
2023-01-03T23:17:27.387Z,16.46
2023-01-03T23:19:55.993Z,16.48
2023-01-03T23:22:25.017Z,16.54
2023-01-03T23:24:53.523Z,16.61
2023-01-03T23:27:27.546Z,16.59
2023-01-03T23:30:04.647Z,16.33
2023-01-03T23:32:33.647Z,16.59
2023-01-03T23:35:02.459Z,16.64
2023-01-03T23:37:36.522Z,16.60
2023-01-03T23:40:09.038Z,16.56
2023-01-03T23:42:37.595Z,16.70
2023-01-03T23:45:18.363Z,16.61
2023-01-03T23:47:53.708Z,16.61
2023-01-03T23:50:27.765Z,16.67
2023-01-03T23:53:00.552Z,16.72
2023-01-03T23:55:32.238Z,16.58
2023-01-03T23:58:06.559Z,16.72
